createdAt,value
2022-12-17T00:00:48.404Z,26.00
2022-12-17T00:06:04.352Z,25.88
2022-12-17T00:11:21.486Z,24.77
2022-12-17T00:16:36.889Z,25.05
2022-12-17T00:21:52.349Z,25.90
2022-12-17T00:27:13.340Z,24.90
2022-12-17T00:32:25.410Z,22.20
2022-12-17T00:37:40.843Z,22.48
2022-12-17T00:43:12.268Z,20.42
2022-12-17T00:48:27.803Z,18.58
2022-12-17T00:53:43.719Z,21.08
2022-12-17T00:59:00.802Z,19.98
2022-12-17T01:04:16.212Z,17.42
2022-12-17T01:09:31.575Z,17.25
2022-12-17T01:14:50.426Z,17.88
2022-12-17T01:20:06.795Z,16.60
2022-12-17T01:30:39.462Z,14.40
2022-12-17T01:35:55.092Z,16.75
2022-12-17T01:41:08.615Z,15.57
2022-12-17T01:46:26.798Z,16.90
2022-12-17T01:51:43.292Z,15.63
2022-12-17T01:57:00.756Z,17.27
2022-12-17T02:02:18.848Z,15.35
2022-12-17T02:07:43.953Z,14.65
2022-12-17T02:13:03.215Z,14.13
2022-12-17T02:18:22.631Z,14.82
2022-12-17T02:23:43.252Z,14.55
2022-12-17T02:29:08.053Z,13.77
2022-12-17T02:34:23.553Z,14.23
2022-12-17T02:39:39.551Z,17.65
2022-12-17T02:44:58.889Z,23.65
2022-12-17T02:50:15.817Z,21.23
2022-12-17T02:55:32.771Z,20.92
2022-12-17T03:00:50.162Z,21.95
2022-12-17T03:06:05.983Z,19.88
2022-12-17T03:11:22.819Z,18.00
2022-12-17T03:16:40.145Z,18.08
2022-12-17T03:21:55.519Z,13.52
2022-12-17T03:27:11.089Z,13.18
2022-12-17T03:32:28.418Z,13.02
2022-12-17T03:37:43.688Z,18.92
2022-12-17T03:42:59.102Z,24.50
2022-12-17T03:48:23.797Z,20.17
2022-12-17T03:53:39.351Z,20.35
2022-12-17T03:58:54.789Z,19.75
2022-12-17T04:04:11.915Z,20.65
2022-12-17T04:09:27.215Z,20.95
2022-12-17T04:14:42.653Z,26.52
2022-12-17T04:20:00.001Z,24.42
2022-12-17T04:25:15.405Z,22.85
2022-12-17T04:30:33.539Z,24.52
2022-12-17T04:35:52.232Z,23.02
2022-12-17T04:41:07.623Z,14.70
2022-12-17T04:46:23.624Z,16.60
2022-12-17T04:51:40.913Z,14.48
2022-12-17T04:56:56.532Z,45.28
2022-12-17T05:02:12.050Z,24.70
2022-12-17T05:12:44.533Z,37.55
2022-12-17T05:17:59.823Z,22.48
2022-12-17T05:23:22.187Z,25.35
2022-12-17T05:28:39.416Z,26.35
2022-12-17T05:33:54.902Z,24.25
2022-12-17T05:39:10.263Z,18.85
2022-12-17T05:44:27.375Z,26.48
2022-12-17T05:49:42.922Z,20.77
2022-12-17T05:54:58.358Z,26.17
2022-12-17T06:00:23.969Z,22.33
2022-12-17T06:05:39.409Z,24.00
2022-12-17T06:10:55.312Z,22.38
2022-12-17T06:16:12.580Z,17.92
2022-12-17T06:21:28.048Z,18.63
2022-12-17T06:26:43.531Z,23.92
2022-12-17T06:32:00.874Z,18.88
2022-12-17T06:37:16.375Z,29.83
2022-12-17T06:42:31.768Z,18.40
2022-12-17T06:47:48.986Z,22.63
2022-12-17T06:53:04.803Z,19.88
2022-12-17T06:58:20.311Z,30.65
2022-12-17T07:03:37.832Z,54.75
2022-12-17T07:08:53.844Z,38.78
2022-12-17T07:14:09.834Z,27.65
2022-12-17T07:24:44.550Z,49.47
2022-12-17T07:30:00.071Z,51.95
2022-12-17T07:35:15.607Z,48.63
2022-12-17T07:40:32.818Z,55.58
2022-12-17T07:45:48.363Z,40.75
2022-12-17T07:51:06.811Z,46.35
2022-12-17T07:56:24.391Z,47.88
2022-12-17T08:01:39.934Z,27.67
2022-12-17T08:12:18.730Z,29.48
2022-12-17T08:17:34.254Z,23.05
2022-12-17T08:28:11.243Z,23.85
2022-12-17T08:33:36.754Z,26.15
2022-12-17T08:38:52.420Z,23.65
2022-12-17T08:44:09.514Z,26.58
2022-12-17T08:49:24.714Z,28.80
2022-12-17T08:54:45.531Z,32.97
2022-12-17T09:00:02.438Z,32.58
2022-12-17T09:05:17.765Z,69.70
2022-12-17T09:10:36.122Z,54.33
2022-12-17T09:15:53.364Z,36.60
2022-12-17T09:21:10.213Z,37.17
2022-12-17T09:26:26.091Z,24.08
2022-12-17T09:31:42.578Z,30.10
2022-12-17T09:36:57.934Z,33.70
2022-12-17T09:42:16.545Z,29.40
2022-12-17T09:47:51.810Z,29.13
2022-12-17T09:53:07.868Z,30.70
2022-12-17T09:58:24.799Z,28.95
2022-12-17T10:03:42.612Z,27.75
2022-12-17T10:09:10.034Z,30.88
2022-12-17T10:14:31.339Z,26.75
2022-12-17T10:19:50.574Z,28.13
2022-12-17T10:25:05.965Z,33.55
2022-12-17T10:30:21.437Z,34.75
2022-12-17T10:35:43.743Z,29.05
2022-12-17T10:40:59.461Z,34.17
2022-12-17T10:51:38.291Z,29.60
2022-12-17T10:56:54.185Z,72.00
2022-12-17T11:02:15.865Z,30.38
2022-12-17T11:07:34.298Z,27.35
2022-12-17T11:12:53.100Z,24.42
2022-12-17T11:18:11.682Z,23.27
2022-12-17T11:23:33.938Z,27.35
2022-12-17T11:28:52.465Z,22.05
2022-12-17T11:34:11.009Z,32.22
2022-12-17T11:39:31.043Z,19.15
2022-12-17T11:44:52.004Z,38.10
2022-12-17T11:50:11.543Z,21.02
2022-12-17T11:55:34.320Z,19.75
2022-12-17T12:00:53.870Z,29.45
2022-12-17T12:06:12.246Z,22.10
2022-12-17T12:11:34.783Z,18.27
2022-12-17T12:16:52.717Z,14.57
2022-12-17T12:22:13.850Z,20.42
2022-12-17T12:27:42.226Z,13.95
2022-12-17T12:33:09.634Z,27.45
2022-12-17T12:38:29.302Z,11.27
2022-12-17T12:43:48.287Z,12.05
2022-12-17T12:49:07.510Z,18.90
2022-12-17T12:54:40.034Z,22.38
2022-12-17T12:59:57.279Z,25.92
2022-12-17T13:05:13.226Z,38.83
2022-12-17T13:10:23.248Z,29.50
2022-12-17T13:15:32.891Z,20.35
2022-12-17T13:20:32.262Z,16.25
2022-12-17T13:25:30.451Z,25.48
2022-12-17T13:30:35.556Z,20.15
2022-12-17T13:35:38.392Z,14.77
2022-12-17T13:40:42.808Z,10.32
2022-12-17T13:45:44.580Z,13.75
2022-12-17T13:50:42.865Z,21.88
2022-12-17T13:55:41.372Z,35.75
2022-12-17T14:00:39.555Z,33.47
2022-12-17T14:05:42.463Z,16.70
2022-12-17T14:10:45.145Z,18.27
2022-12-17T14:15:46.336Z,20.13
2022-12-17T14:20:46.204Z,12.98
2022-12-17T14:25:45.290Z,19.20
2022-12-17T14:31:17.252Z,20.35
2022-12-17T14:36:05.330Z,23.00
2022-12-17T14:41:24.025Z,45.60
2022-12-17T14:46:23.238Z,9.60
2022-12-17T14:51:24.707Z,14.73
2022-12-17T14:56:23.747Z,16.08
2022-12-17T15:01:22.062Z,26.63
2022-12-17T15:06:20.946Z,30.30
2022-12-17T15:11:21.217Z,38.53
2022-12-17T15:16:19.411Z,37.30
2022-12-17T15:21:19.131Z,28.63
2022-12-17T15:26:17.597Z,20.70
2022-12-17T15:31:21.864Z,38.55
2022-12-17T15:36:22.761Z,28.05
2022-12-17T15:41:38.131Z,62.95
2022-12-17T15:46:37.750Z,24.85
2022-12-17T15:51:36.026Z,21.52
2022-12-17T15:56:34.922Z,24.92
2022-12-17T16:01:33.221Z,21.02
2022-12-17T16:06:33.665Z,34.53
2022-12-17T16:11:31.898Z,28.77
2022-12-17T16:16:30.840Z,21.92
2022-12-17T16:21:29.457Z,25.50
2022-12-17T16:26:29.024Z,18.08
2022-12-17T16:31:27.373Z,18.85
2022-12-17T16:36:25.642Z,19.52
2022-12-17T16:41:24.219Z,29.00
2022-12-17T16:46:28.095Z,32.63
2022-12-17T16:51:29.295Z,32.90
2022-12-17T16:56:28.916Z,31.25
2022-12-17T17:01:29.441Z,42.38
2022-12-17T17:06:33.347Z,43.55
2022-12-17T17:11:32.101Z,38.70
2022-12-17T17:16:31.747Z,35.47
2022-12-17T17:21:30.867Z,35.30
2022-12-17T17:26:29.506Z,31.42
2022-12-17T17:32:01.068Z,32.80
2022-12-17T17:36:47.566Z,38.88
2022-12-17T17:41:45.788Z,43.50
2022-12-17T17:46:44.188Z,50.72
2022-12-17T17:57:02.592Z,27.85
2022-12-17T18:02:01.459Z,36.83
2022-12-17T18:07:24.310Z,37.28
2022-12-17T18:12:48.396Z,36.83
2022-12-17T18:17:46.999Z,47.83
2022-12-17T18:22:46.095Z,56.85
2022-12-17T18:27:46.591Z,51.47
2022-12-17T18:32:44.756Z,40.50
2022-12-17T18:37:43.022Z,44.15
2022-12-17T18:42:59.259Z,31.33
2022-12-17T18:47:58.841Z,22.33
2022-12-17T18:52:57.004Z,23.77
2022-12-17T18:57:55.162Z,19.77
2022-12-17T19:02:53.406Z,19.88
2022-12-17T19:07:53.134Z,14.48
2022-12-17T19:12:51.332Z,15.25
2022-12-17T19:17:51.005Z,15.90
2022-12-17T19:22:49.240Z,15.85
2022-12-17T19:27:48.807Z,13.82
2022-12-17T19:32:46.948Z,12.88
2022-12-17T19:37:45.091Z,13.10
2022-12-17T19:42:43.271Z,15.48
2022-12-17T19:47:43.003Z,13.63
2022-12-17T19:52:41.155Z,13.30
2022-12-17T19:57:39.340Z,13.25
2022-12-17T20:02:37.631Z,12.20
2022-12-17T20:07:37.266Z,13.15
2022-12-17T20:12:35.458Z,15.52
2022-12-17T20:17:33.676Z,16.27
2022-12-17T20:22:31.823Z,15.65
2022-12-17T20:27:31.452Z,12.82
2022-12-17T20:32:29.684Z,18.45
2022-12-17T20:37:27.875Z,12.32
2022-12-17T20:42:26.072Z,14.13
2022-12-17T20:47:25.606Z,13.85
2022-12-17T20:52:23.862Z,25.48
2022-12-17T20:57:22.038Z,12.57
2022-12-17T21:02:20.381Z,10.70
2022-12-17T21:07:22.408Z,10.23
2022-12-17T21:12:20.639Z,12.13
2022-12-17T21:17:18.975Z,12.18
2022-12-17T21:22:17.413Z,9.48
2022-12-17T21:27:17.323Z,10.57
2022-12-17T21:32:15.483Z,11.02
2022-12-17T21:37:13.867Z,10.82
2022-12-17T21:42:29.165Z,11.32
2022-12-17T21:47:28.711Z,9.45
2022-12-17T21:52:27.101Z,11.15
2022-12-17T21:57:25.408Z,10.32
2022-12-17T22:02:23.801Z,10.98
2022-12-17T22:07:25.351Z,8.35
2022-12-17T22:12:42.990Z,11.63
2022-12-17T22:17:42.227Z,12.27
2022-12-17T22:22:41.900Z,11.05
2022-12-17T22:27:40.296Z,15.68
2022-12-17T22:32:56.005Z,18.98
2022-12-17T22:40:47.832Z,15.20
2022-12-17T22:44:48.775Z,10.20
2022-12-17T22:48:51.146Z,12.07
2022-12-17T22:53:50.868Z,11.23
2022-12-17T22:58:49.368Z,11.68
2022-12-17T23:03:47.668Z,13.43
2022-12-17T23:08:46.091Z,13.23
2022-12-17T23:13:46.076Z,15.80
2022-12-17T23:18:45.457Z,14.30
2022-12-17T23:23:43.837Z,14.90
2022-12-17T23:28:42.217Z,14.45
2022-12-17T23:33:42.061Z,21.08
2022-12-17T23:38:40.750Z,13.73
2022-12-17T23:43:39.684Z,14.05
2022-12-17T23:48:44.805Z,12.02
2022-12-17T23:53:45.658Z,13.15
2022-12-17T23:58:44.716Z,13.93
